sensor_id;sensor_type;location;lat;lon;timestamp;pressure;altitude;pressure_sealevel;temperature;humidity
55187;BME280;55457;52.002;5.464;2023-04-24T00:02:08;99647.97;;;19.98;43.41
55187;BME280;55457;52.002;5.464;2023-04-24T00:04:36;99650.97;;;19.96;43.35
55187;BME280;55457;52.002;5.464;2023-04-24T00:07:05;99642.03;;;19.96;43.47
55187;BME280;55457;52.002;5.464;2023-04-24T00:09:32;99642.03;;;19.96;43.39
55187;BME280;55457;52.002;5.464;2023-04-24T00:11:57;99651.75;;;19.97;43.32
55187;BME280;55457;52.002;5.464;2023-04-24T00:14:22;99650.16;;;19.96;43.46
55187;BME280;55457;52.002;5.464;2023-04-24T00:16:48;99645.53;;;19.96;43.33
55187;BME280;55457;52.002;5.464;2023-04-24T00:19:13;99659.06;;;19.96;43.58
55187;BME280;55457;52.002;5.464;2023-04-24T00:21:39;99661.78;;;19.96;43.44
55187;BME280;55457;52.002;5.464;2023-04-24T00:24:05;99660.16;;;19.95;43.24
55187;BME280;55457;52.002;5.464;2023-04-24T00:26:30;99666.38;;;19.96;43.38
55187;BME280;55457;52.002;5.464;2023-04-24T00:28:55;99659.88;;;19.97;43.30
55187;BME280;55457;52.002;5.464;2023-04-24T00:31:21;99657.44;;;19.95;43.50
55187;BME280;55457;52.002;5.464;2023-04-24T00:33:46;99659.34;;;19.95;43.33
55187;BME280;55457;52.002;5.464;2023-04-24T00:36:11;99663.94;;;19.94;43.40
55187;BME280;55457;52.002;5.464;2023-04-24T00:38:37;99657.69;;;19.94;43.09
55187;BME280;55457;52.002;5.464;2023-04-24T00:41:02;99657.69;;;19.94;43.31
55187;BME280;55457;52.002;5.464;2023-04-24T00:43:27;99666.91;;;19.93;43.36
55187;BME280;55457;52.002;5.464;2023-04-24T00:45:53;99671.22;;;19.94;43.41
55187;BME280;55457;52.002;5.464;2023-04-24T00:48:20;99672.31;;;19.93;43.24
55187;BME280;55457;52.002;5.464;2023-04-24T00:50:45;99661.47;;;19.93;43.40
55187;BME280;55457;52.002;5.464;2023-04-24T00:53:11;99675.81;;;19.93;43.25
55187;BME280;55457;52.002;5.464;2023-04-24T00:55:36;99665.56;;;19.90;43.38
55187;BME280;55457;52.002;5.464;2023-04-24T00:58:02;99670.41;;;19.93;43.30
55187;BME280;55457;52.002;5.464;2023-04-24T01:00:29;99673.38;;;19.92;43.35
55187;BME280;55457;52.002;5.464;2023-04-24T01:02:57;99669.88;;;19.91;43.37
55187;BME280;55457;52.002;5.464;2023-04-24T01:05:24;99667.16;;;19.91;43.40
55187;BME280;55457;52.002;5.464;2023-04-24T01:07:49;99676.91;;;19.92;43.32
55187;BME280;55457;52.002;5.464;2023-04-24T01:10:15;99675.28;;;19.91;43.38
55187;BME280;55457;52.002;5.464;2023-04-24T01:12:42;99670.69;;;19.92;43.31
55187;BME280;55457;52.002;5.464;2023-04-24T01:15:08;99675.28;;;19.91;43.33
55187;BME280;55457;52.002;5.464;2023-04-24T01:17:34;99673.66;;;19.90;43.28
55187;BME280;55457;52.002;5.464;2023-04-24T01:20:00;99675.28;;;19.91;43.32
55187;BME280;55457;52.002;5.464;2023-04-24T01:22:26;99680.69;;;19.91;43.34
55187;BME280;55457;52.002;5.464;2023-04-24T01:24:52;99679.06;;;19.90;43.41
55187;BME280;55457;52.002;5.464;2023-04-24T01:27:19;99680.69;;;19.91;43.46
55187;BME280;55457;52.002;5.464;2023-04-24T01:29:45;99686.09;;;19.91;43.37
55187;BME280;55457;52.002;5.464;2023-04-24T01:32:10;99681.78;;;19.90;43.34
55187;BME280;55457;52.002;5.464;2023-04-24T01:34:37;99680.69;;;19.91;43.46
55187;BME280;55457;52.002;5.464;2023-04-24T01:37:02;99679.06;;;19.90;43.41
55187;BME280;55457;52.002;5.464;2023-04-24T01:39:27;99677.44;;;19.89;43.42
55187;BME280;55457;52.002;5.464;2023-04-24T01:41:54;99680.16;;;19.89;43.37
55187;BME280;55457;52.002;5.464;2023-04-24T01:44:20;99677.44;;;19.89;43.46
55187;BME280;55457;52.002;5.464;2023-04-24T01:46:46;99682.88;;;19.89;43.34
55187;BME280;55457;52.002;5.464;2023-04-24T01:49:11;99674.75;;;19.89;43.41
55187;BME280;55457;52.002;5.464;2023-04-24T01:51:37;99679.31;;;19.89;43.40
55187;BME280;55457;52.002;5.464;2023-04-24T01:54:02;99672.03;;;19.89;43.39
55187;BME280;55457;52.002;5.464;2023-04-24T01:56:33;99680.16;;;19.89;43.21
55187;BME280;55457;52.002;5.464;2023-04-24T01:58:59;99681.22;;;19.88;43.37
55187;BME280;55457;52.002;5.464;2023-04-24T02:01:25;99682.88;;;19.89;43.35
55187;BME280;55457;52.002;5.464;2023-04-24T02:03:50;99678.50;;;19.88;43.44
55187;BME280;55457;52.002;5.464;2023-04-24T02:06:15;99678.50;;;19.88;43.35
55187;BME280;55457;52.002;5.464;2023-04-24T02:08:41;99682.88;;;19.89;43.28
55187;BME280;55457;52.002;5.464;2023-04-24T02:11:08;99687.19;;;19.90;43.34
55187;BME280;55457;52.002;5.464;2023-04-24T02:13:34;99678.25;;;19.90;43.33
55187;BME280;55457;52.002;5.464;2023-04-24T02:15:59;99675.81;;;19.88;43.34
55187;BME280;55457;52.002;5.464;2023-04-24T02:18:24;99684.47;;;19.90;43.35
55187;BME280;55457;52.002;5.464;2023-04-24T02:20:50;99681.22;;;19.88;43.53
55187;BME280;55457;52.002;5.464;2023-04-24T02:23:15;99683.91;;;19.88;43.30
55187;BME280;55457;52.002;5.464;2023-04-24T02:25:41;99680.97;;;19.90;43.47
55187;BME280;55457;52.002;5.464;2023-04-24T02:28:06;99685.56;;;19.89;43.42
55187;BME280;55457;52.002;5.464;2023-04-24T02:30:31;99686.63;;;19.88;43.22
55187;BME280;55457;52.002;5.464;2023-04-24T02:32:57;99689.31;;;19.88;43.29
55187;BME280;55457;52.002;5.464;2023-04-24T02:35:22;99684.72;;;19.89;43.35
55187;BME280;55457;52.002;5.464;2023-04-24T02:37:47;99677.44;;;19.89;43.28
55187;BME280;55457;52.002;5.464;2023-04-24T02:40:13;99680.41;;;19.88;43.34
55187;BME280;55457;52.002;5.464;2023-04-24T02:42:38;99676.63;;;19.89;43.29
55187;BME280;55457;52.002;5.464;2023-04-24T02:45:04;99678.50;;;19.88;43.44
55187;BME280;55457;52.002;5.464;2023-04-24T02:47:30;99677.69;;;19.88;43.43
55187;BME280;55457;52.002;5.464;2023-04-24T02:49:55;99675.00;;;19.88;43.47
55187;BME280;55457;52.002;5.464;2023-04-24T02:52:21;99683.91;;;19.88;43.29
55187;BME280;55457;52.002;5.464;2023-04-24T02:54:46;99676.91;;;19.87;43.34
55187;BME280;55457;52.002;5.464;2023-04-24T02:57:11;99686.63;;;19.88;43.26
55187;BME280;55457;52.002;5.464;2023-04-24T02:59:37;99677.69;;;19.88;43.28
55187;BME280;55457;52.002;5.464;2023-04-24T03:02:02;99681.50;;;19.87;43.30
55187;BME280;55457;52.002;5.464;2023-04-24T03:04:27;99678.50;;;19.88;43.29
55187;BME280;55457;52.002;5.464;2023-04-24T03:06:52;99678.50;;;19.88;43.32
55187;BME280;55457;52.002;5.464;2023-04-24T03:09:20;99668.78;;;19.87;43.48
55187;BME280;55457;52.002;5.464;2023-04-24T03:11:45;99674.19;;;19.87;43.38
55187;BME280;55457;52.002;5.464;2023-04-24T03:14:10;99670.69;;;19.87;43.38
55187;BME280;55457;52.002;5.464;2023-04-24T03:16:36;99669.59;;;19.88;43.27
55187;BME280;55457;52.002;5.464;2023-04-24T03:19:02;99678.78;;;19.87;43.21
55187;BME280;55457;52.002;5.464;2023-04-24T03:21:27;99677.97;;;19.86;43.18
55187;BME280;55457;52.002;5.464;2023-04-24T03:23:53;99677.16;;;19.86;43.39
55187;BME280;55457;52.002;5.464;2023-04-24T03:26:18;99669.88;;;19.86;43.42
55187;BME280;55457;52.002;5.464;2023-04-24T03:28:43;99676.38;;;19.85;43.41
55187;BME280;55457;52.002;5.464;2023-04-24T03:31:08;99665.53;;;19.85;43.13
55187;BME280;55457;52.002;5.464;2023-04-24T03:33:34;99660.13;;;19.85;43.35
55187;BME280;55457;52.002;5.464;2023-04-24T03:36:01;99672.56;;;19.86;43.29
55187;BME280;55457;52.002;5.464;2023-04-24T03:38:26;99668.78;;;19.87;43.26
55187;BME280;55457;52.002;5.464;2023-04-24T03:40:51;99667.16;;;19.86;43.38
55187;BME280;55457;52.002;5.464;2023-04-24T03:43:17;99666.06;;;19.87;43.33
55187;BME280;55457;52.002;5.464;2023-04-24T03:45:42;99666.06;;;19.87;43.34
55187;BME280;55457;52.002;5.464;2023-04-24T03:48:07;99661.75;;;19.86;43.59
55187;BME280;55457;52.002;5.464;2023-04-24T03:50:33;99671.47;;;19.87;43.23
55187;BME280;55457;52.002;5.464;2023-04-24T03:52:58;99674.19;;;19.87;43.35
55187;BME280;55457;52.002;5.464;2023-04-24T03:55:23;99678.78;;;19.87;43.24
55187;BME280;55457;52.002;5.464;2023-04-24T03:57:49;99677.97;;;19.86;43.25
55187;BME280;55457;52.002;5.464;2023-04-24T04:00:14;99676.91;;;19.87;43.23
55187;BME280;55457;52.002;5.464;2023-04-24T04:02:40;99678.78;;;19.87;43.20
55187;BME280;55457;52.002;5.464;2023-04-24T04:05:05;99677.69;;;19.88;43.26
55187;BME280;55457;52.002;5.464;2023-04-24T04:07:31;99673.38;;;19.87;43.33
55187;BME280;55457;52.002;5.464;2023-04-24T04:09:56;99680.69;;;19.86;43.28
55187;BME280;55457;52.002;5.464;2023-04-24T04:12:21;99670.94;;;19.85;43.14
55187;BME280;55457;52.002;5.464;2023-04-24T04:14:47;99690.41;;;19.87;43.16
55187;BME280;55457;52.002;5.464;2023-04-24T04:17:14;99688.78;;;19.86;43.28
55187;BME280;55457;52.002;5.464;2023-04-24T04:19:39;99694.19;;;19.86;43.27
55187;BME280;55457;52.002;5.464;2023-04-24T04:22:04;99686.09;;;19.86;43.27
55187;BME280;55457;52.002;5.464;2023-04-24T04:24:30;99695.00;;;19.87;43.30
55187;BME280;55457;52.002;5.464;2023-04-24T04:26:55;99688.78;;;19.86;43.27
55187;BME280;55457;52.002;5.464;2023-04-24T04:29:22;99693.38;;;19.86;43.28
55187;BME280;55457;52.002;5.464;2023-04-24T04:31:47;99694.19;;;19.86;43.33
55187;BME280;55457;52.002;5.464;2023-04-24T04:34:13;99698.00;;;19.85;43.25
55187;BME280;55457;52.002;5.464;2023-04-24T04:36:39;99696.91;;;19.86;43.24
55187;BME280;55457;52.002;5.464;2023-04-24T04:39:05;99703.41;;;19.85;43.23
55187;BME280;55457;52.002;5.464;2023-04-24T04:41:30;99710.44;;;19.86;43.28
55187;BME280;55457;52.002;5.464;2023-04-24T04:43:56;99706.09;;;19.85;43.18
55187;BME280;55457;52.002;5.464;2023-04-24T04:46:23;99721.25;;;19.86;43.25
55187;BME280;55457;52.002;5.464;2023-04-24T04:48:52;99722.31;;;19.85;43.32
55187;BME280;55457;52.002;5.464;2023-04-24T04:51:17;99716.91;;;19.85;43.09
55187;BME280;55457;52.002;5.464;2023-04-24T04:53:42;99725.84;;;19.86;43.18
55187;BME280;55457;52.002;5.464;2023-04-24T04:56:07;99724.22;;;19.85;43.10
55187;BME280;55457;52.002;5.464;2023-04-24T04:58:33;99735.03;;;19.85;43.19
55187;BME280;55457;52.002;5.464;2023-04-24T05:00:58;99728.53;;;19.86;43.18
55187;BME280;55457;52.002;5.464;2023-04-24T05:03:24;99737.47;;;19.86;43.38
55187;BME280;55457;52.002;5.464;2023-04-24T05:05:49;99726.91;;;19.85;43.31
55187;BME280;55457;52.002;5.464;2023-04-24T05:08:14;99734.75;;;19.86;43.30
55187;BME280;55457;52.002;5.464;2023-04-24T05:10:40;99732.06;;;19.86;43.24
55187;BME280;55457;52.002;5.464;2023-04-24T05:13:05;99741.78;;;19.87;43.21
55187;BME280;55457;52.002;5.464;2023-04-24T05:15:30;99748.28;;;19.86;42.96
55187;BME280;55457;52.002;5.464;2023-04-24T05:17:56;99760.72;;;19.87;43.24
55187;BME280;55457;52.002;5.464;2023-04-24T05:20:21;99759.09;;;19.86;43.28
55187;BME280;55457;52.002;5.464;2023-04-24T05:22:46;99762.59;;;19.87;43.15
55187;BME280;55457;52.002;5.464;2023-04-24T05:25:12;99776.13;;;19.87;43.27
55187;BME280;55457;52.002;5.464;2023-04-24T05:27:38;99776.94;;;19.87;43.21
55187;BME280;55457;52.002;5.464;2023-04-24T05:30:04;99778.03;;;19.86;43.14
55187;BME280;55457;52.002;5.464;2023-04-24T05:32:29;99786.66;;;19.88;43.20
55187;BME280;55457;52.002;5.464;2023-04-24T05:34:55;99799.38;;;19.88;43.21
55187;BME280;55457;52.002;5.464;2023-04-24T05:37:20;99791.53;;;19.86;43.24
55187;BME280;55457;52.002;5.464;2023-04-24T05:39:45;99810.19;;;19.88;42.78
55187;BME280;55457;52.002;5.464;2023-04-24T05:42:11;99812.09;;;19.87;43.31
55187;BME280;55457;52.002;5.464;2023-04-24T05:44:36;99822.91;;;19.87;43.13
55187;BME280;55457;52.002;5.464;2023-04-24T05:47:02;99823.97;;;19.86;43.18
55187;BME280;55457;52.002;5.464;2023-04-24T05:49:27;99830.19;;;19.87;43.23
55187;BME280;55457;52.002;5.464;2023-04-24T05:51:53;99840.22;;;19.86;43.10
55187;BME280;55457;52.002;5.464;2023-04-24T05:54:18;99842.91;;;19.86;43.34
55187;BME280;55457;52.002;5.464;2023-04-24T05:56:43;99851.03;;;19.86;43.24
55187;BME280;55457;52.002;5.464;2023-04-24T05:59:09;99849.41;;;19.85;43.24
55187;BME280;55457;52.002;5.464;2023-04-24T06:01:34;99861.84;;;19.86;43.25
55187;BME280;55457;52.002;5.464;2023-04-24T06:04:02;99867.25;;;19.86;43.18
55187;BME280;55457;52.002;5.464;2023-04-24T06:06:27;99869.94;;;19.86;43.03
55187;BME280;55457;52.002;5.464;2023-04-24T06:08:52;99868.06;;;19.87;43.17
55187;BME280;55457;52.002;5.464;2023-04-24T06:11:18;99867.53;;;19.85;43.24
55187;BME280;55457;52.002;5.464;2023-04-24T06:13:43;99885.63;;;19.84;43.26
55187;BME280;55457;52.002;5.464;2023-04-24T06:16:09;99872.66;;;19.86;43.15
55187;BME280;55457;52.002;5.464;2023-04-24T06:18:34;99881.84;;;19.85;43.18
55187;BME280;55457;52.002;5.464;2023-04-24T06:21:00;99898.06;;;19.85;43.34
55187;BME280;55457;52.002;5.464;2023-04-24T06:23:25;99897.00;;;19.86;43.15
55187;BME280;55457;52.002;5.464;2023-04-24T06:25:51;99901.84;;;19.84;43.36
55187;BME280;55457;52.002;5.464;2023-04-24T06:28:16;99904.28;;;19.86;43.13
55187;BME280;55457;52.002;5.464;2023-04-24T06:30:42;99901.84;;;19.84;43.17
55187;BME280;55457;52.002;5.464;2023-04-24T06:33:08;99914.28;;;19.85;43.36
55187;BME280;55457;52.002;5.464;2023-04-24T06:35:33;99914.28;;;19.85;43.04
55187;BME280;55457;52.002;5.464;2023-04-24T06:37:59;99928.91;;;19.84;43.16
55187;BME280;55457;52.002;5.464;2023-04-24T06:40:24;99920.78;;;19.84;43.24
55187;BME280;55457;52.002;5.464;2023-04-24T06:42:50;99933.22;;;19.85;43.10
55187;BME280;55457;52.002;5.464;2023-04-24T06:45:15;99945.66;;;19.86;43.22
55187;BME280;55457;52.002;5.464;2023-04-24T06:47:40;99950.53;;;19.84;42.95
55187;BME280;55457;52.002;5.464;2023-04-24T06:50:06;99962.97;;;19.85;43.16
55187;BME280;55457;52.002;5.464;2023-04-24T06:52:31;99966.47;;;19.86;43.09
55187;BME280;55457;52.002;5.464;2023-04-24T06:55:04;99966.75;;;19.84;43.05
55187;BME280;55457;52.002;5.464;2023-04-24T06:57:30;99980.00;;;19.86;43.14
55187;BME280;55457;52.002;5.464;2023-04-24T06:59:55;99991.09;;;19.84;43.22
55187;BME280;55457;52.002;5.464;2023-04-24T07:02:21;99995.41;;;19.85;43.16
55187;BME280;55457;52.002;5.464;2023-04-24T07:04:46;99995.41;;;19.85;43.18
55187;BME280;55457;52.002;5.464;2023-04-24T07:07:13;100006.22;;;19.85;43.28
55187;BME280;55457;52.002;5.464;2023-04-24T07:09:39;100014.34;;;19.85;43.35
55187;BME280;55457;52.002;5.464;2023-04-24T07:12:07;100015.41;;;19.84;43.18
55187;BME280;55457;52.002;5.464;2023-04-24T07:14:33;100025.16;;;19.85;43.16
55187;BME280;55457;52.002;5.464;2023-04-24T07:16:58;100034.59;;;19.83;43.11
55187;BME280;55457;52.002;5.464;2023-04-24T07:19:23;100041.38;;;19.85;43.31
55187;BME280;55457;52.002;5.464;2023-04-24T07:21:49;100055.97;;;19.84;43.17
55187;BME280;55457;52.002;5.464;2023-04-24T07:24:14;100053.28;;;19.84;43.30
55187;BME280;55457;52.002;5.464;2023-04-24T07:26:40;100058.69;;;19.84;43.15
55187;BME280;55457;52.002;5.464;2023-04-24T07:29:06;100063.25;;;19.84;43.18
55187;BME280;55457;52.002;5.464;2023-04-24T07:31:32;100062.44;;;19.83;43.09
55187;BME280;55457;52.002;5.464;2023-04-24T07:33:57;100070.53;;;19.83;43.19
55187;BME280;55457;52.002;5.464;2023-04-24T07:36:23;100070.53;;;19.83;43.19
55187;BME280;55457;52.002;5.464;2023-04-24T07:38:49;100084.88;;;19.84;43.05
55187;BME280;55457;52.002;5.464;2023-04-24T07:41:15;100084.06;;;19.83;43.24
55187;BME280;55457;52.002;5.464;2023-04-24T07:43:41;100094.06;;;19.83;43.09
55187;BME280;55457;52.002;5.464;2023-04-24T07:46:07;100103.00;;;19.83;43.16
55187;BME280;55457;52.002;5.464;2023-04-24T07:48:32;100111.09;;;19.83;43.35
55187;BME280;55457;52.002;5.464;2023-04-24T07:50:58;100109.22;;;19.84;43.10
55187;BME280;55457;52.002;5.464;2023-04-24T07:53:23;100122.72;;;19.84;43.04
55187;BME280;55457;52.002;5.464;2023-04-24T07:55:48;100116.50;;;19.83;43.11
55187;BME280;55457;52.002;5.464;2023-04-24T07:58:14;100120.03;;;19.84;43.24
55187;BME280;55457;52.002;5.464;2023-04-24T08:00:40;100121.91;;;19.83;43.18
55187;BME280;55457;52.002;5.464;2023-04-24T08:03:05;100131.09;;;19.82;43.12
55187;BME280;55457;52.002;5.464;2023-04-24T08:05:31;100128.97;;;19.84;43.17
55187;BME280;55457;52.002;5.464;2023-04-24T08:07:56;100140.84;;;19.83;43.18
55187;BME280;55457;52.002;5.464;2023-04-24T08:10:22;100144.63;;;19.82;43.16
55187;BME280;55457;52.002;5.464;2023-04-24T08:12:48;100154.38;;;19.83;43.17
55187;BME280;55457;52.002;5.464;2023-04-24T08:15:15;100159.78;;;19.83;43.18
55187;BME280;55457;52.002;5.464;2023-04-24T08:17:40;100159.78;;;19.83;43.21
55187;BME280;55457;52.002;5.464;2023-04-24T08:20:08;100171.41;;;19.84;43.09
55187;BME280;55457;52.002;5.464;2023-04-24T08:22:39;100176.81;;;19.84;43.14
55187;BME280;55457;52.002;5.464;2023-04-24T08:25:05;100187.63;;;19.84;43.23
55187;BME280;55457;52.002;5.464;2023-04-24T08:27:30;100193.03;;;19.84;43.30
55187;BME280;55457;52.002;5.464;2023-04-24T08:29:57;100192.22;;;19.83;43.17
55187;BME280;55457;52.002;5.464;2023-04-24T08:32:22;100212.81;;;19.84;43.23
55187;BME280;55457;52.002;5.464;2023-04-24T08:34:48;100211.97;;;19.84;43.24
55187;BME280;55457;52.002;5.464;2023-04-24T08:37:13;100213.84;;;19.83;43.08
55187;BME280;55457;52.002;5.464;2023-04-24T08:39:38;100224.66;;;19.83;43.25
55187;BME280;55457;52.002;5.464;2023-04-24T08:42:04;100213.84;;;19.83;43.11
55187;BME280;55457;52.002;5.464;2023-04-24T08:44:33;100211.72;;;19.85;43.07
55187;BME280;55457;52.002;5.464;2023-04-24T08:47:01;100222.53;;;19.85;42.99
55187;BME280;55457;52.002;5.464;2023-04-24T08:49:28;100241.22;;;19.87;43.06
55187;BME280;55457;52.002;5.464;2023-04-24T08:51:53;100240.41;;;19.86;43.17
55187;BME280;55457;52.002;5.464;2023-04-24T08:54:19;100245.81;;;19.86;43.20
55187;BME280;55457;52.002;5.464;2023-04-24T08:56:45;100258.25;;;19.87;43.17
55187;BME280;55457;52.002;5.464;2023-04-24T08:59:14;100257.44;;;19.87;43.04
55187;BME280;55457;52.002;5.464;2023-04-24T09:01:40;100264.47;;;19.88;43.06
55187;BME280;55457;52.002;5.464;2023-04-24T09:04:07;100258.25;;;19.87;42.92
55187;BME280;55457;52.002;5.464;2023-04-24T09:06:34;100256.63;;;19.86;43.09
55187;BME280;55457;52.002;5.464;2023-04-24T09:09:01;100269.06;;;19.87;43.03
55187;BME280;55457;52.002;5.464;2023-04-24T09:11:27;100267.44;;;19.86;43.04
55187;BME280;55457;52.002;5.464;2023-04-24T09:13:53;100269.06;;;19.87;43.01
55187;BME280;55457;52.002;5.464;2023-04-24T09:16:19;100277.19;;;19.87;42.98
55187;BME280;55457;52.002;5.464;2023-04-24T09:18:45;100278.25;;;19.86;43.03
55187;BME280;55457;52.002;5.464;2023-04-24T09:21:11;100285.28;;;19.87;43.08
55187;BME280;55457;52.002;5.464;2023-04-24T09:23:36;100289.06;;;19.86;43.04
55187;BME280;55457;52.002;5.464;2023-04-24T09:26:03;100296.09;;;19.87;43.09
55187;BME280;55457;52.002;5.464;2023-04-24T09:28:37;100291.78;;;19.86;43.12
55187;BME280;55457;52.002;5.464;2023-04-24T09:31:13;100301.25;;;19.89;42.91
55187;BME280;55457;52.002;5.464;2023-04-24T09:34:00;100308.56;;;19.88;43.11
55187;BME280;55457;52.002;5.464;2023-04-24T09:36:42;100304.81;;;19.89;42.98
55187;BME280;55457;52.002;5.464;2023-04-24T09:39:12;100311.84;;;19.90;43.07
55187;BME280;55457;52.002;5.464;2023-04-24T09:44:24;100311.03;;;19.90;42.98
55187;BME280;55457;52.002;5.464;2023-04-24T09:46:55;100329.69;;;19.91;43.00
55187;BME280;55457;52.002;5.464;2023-04-24T09:49:26;100329.69;;;19.91;42.90
55187;BME280;55457;52.002;5.464;2023-04-24T09:52:02;100335.91;;;19.92;43.04
55187;BME280;55457;52.002;5.464;2023-04-24T09:54:28;100336.72;;;19.92;42.90
55187;BME280;55457;52.002;5.464;2023-04-24T09:56:54;100337.56;;;19.93;42.83
55187;BME280;55457;52.002;5.464;2023-04-24T09:59:20;100339.19;;;19.94;42.82
55187;BME280;55457;52.002;5.464;2023-04-24T10:01:46;100337.88;;;19.96;42.72
55187;BME280;55457;52.002;5.464;2023-04-24T10:04:16;100342.19;;;19.97;42.90
55187;BME280;55457;52.002;5.464;2023-04-24T10:06:43;100353.03;;;19.97;42.92
55187;BME280;55457;52.002;5.464;2023-04-24T10:09:09;100351.94;;;19.98;42.74
55187;BME280;55457;52.002;5.464;2023-04-24T10:11:36;100367.34;;;19.98;42.81
55187;BME280;55457;52.002;5.464;2023-04-24T10:14:02;100364.91;;;19.96;42.72
55187;BME280;55457;52.002;5.464;2023-04-24T10:16:28;100366.00;;;19.95;42.74
55187;BME280;55457;52.002;5.464;2023-04-24T10:18:58;100374.09;;;19.95;42.77
55187;BME280;55457;52.002;5.464;2023-04-24T10:21:24;100371.63;;;19.94;42.81
55187;BME280;55457;52.002;5.464;2023-04-24T10:23:50;100380.81;;;19.93;42.60
55187;BME280;55457;52.002;5.464;2023-04-24T10:26:16;100392.44;;;19.93;42.65
55187;BME280;55457;52.002;5.464;2023-04-24T10:28:46;100397.84;;;19.93;42.78
55187;BME280;55457;52.002;5.464;2023-04-24T10:31:13;100399.53;;;19.94;42.66
55187;BME280;55457;52.002;5.464;2023-04-24T10:33:40;100392.22;;;19.95;42.67
55187;BME280;55457;52.002;5.464;2023-04-24T10:36:07;100397.38;;;19.96;42.82
55187;BME280;55457;52.002;5.464;2023-04-24T10:38:35;100398.19;;;19.97;42.71
55187;BME280;55457;52.002;5.464;2023-04-24T10:41:12;100404.41;;;19.97;42.52
55187;BME280;55457;52.002;5.464;2023-04-24T10:43:48;100403.59;;;19.97;42.74
55187;BME280;55457;52.002;5.464;2023-04-24T10:46:22;100399.25;;;19.96;42.73
55187;BME280;55457;52.002;5.464;2023-04-24T10:48:54;100407.94;;;19.98;42.67
55187;BME280;55457;52.002;5.464;2023-04-24T10:51:22;100401.72;;;19.97;42.66
55187;BME280;55457;52.002;5.464;2023-04-24T10:53:52;100408.75;;;19.98;42.66
55187;BME280;55457;52.002;5.464;2023-04-24T10:56:17;100406.38;;;20.02;42.55
55187;BME280;55457;52.002;5.464;2023-04-24T10:58:51;100412.09;;;20.05;42.56
55187;BME280;55457;52.002;5.464;2023-04-24T11:01:25;100413.22;;;20.10;42.60
55187;BME280;55457;52.002;5.464;2023-04-24T11:03:55;100415.97;;;20.15;42.46
55187;BME280;55457;52.002;5.464;2023-04-24T11:06:31;100407.44;;;20.23;42.27
55187;BME280;55457;52.002;5.464;2023-04-24T11:09:08;100411.34;;;20.32;42.25
55187;BME280;55457;52.002;5.464;2023-04-24T11:11:36;100414.28;;;20.30;42.49
55187;BME280;55457;52.002;5.464;2023-04-24T11:14:04;100417.50;;;20.27;42.10
55187;BME280;55457;52.002;5.464;2023-04-24T11:16:45;100425.28;;;20.24;42.52
55187;BME280;55457;52.002;5.464;2023-04-24T11:24:50;100441.72;;;20.17;42.61
55187;BME280;55457;52.002;5.464;2023-04-24T11:27:17;100448.44;;;20.15;42.48
55187;BME280;55457;52.002;5.464;2023-04-24T11:29:51;100452.22;;;20.14;42.62
55187;BME280;55457;52.002;5.464;2023-04-24T11:34:56;100465.47;;;20.10;42.67
55187;BME280;55457;52.002;5.464;2023-04-24T11:37:23;100471.09;;;20.08;42.63
55187;BME280;55457;52.002;5.464;2023-04-24T11:39:54;100460.53;;;20.07;42.67
55187;BME280;55457;52.002;5.464;2023-04-24T11:42:21;100470.28;;;20.08;42.62
55187;BME280;55457;52.002;5.464;2023-04-24T11:44:47;100470.28;;;20.08;42.52
55187;BME280;55457;52.002;5.464;2023-04-24T11:47:13;100477.66;;;20.13;42.58
55187;BME280;55457;52.002;5.464;2023-04-24T11:49:38;100474.47;;;20.16;42.52
55187;BME280;55457;52.002;5.464;2023-04-24T11:52:04;100487.22;;;20.20;42.70
55187;BME280;55457;52.002;5.464;2023-04-24T11:54:30;100481.56;;;20.22;42.54
55187;BME280;55457;52.002;5.464;2023-04-24T11:56:56;100488.59;;;20.23;42.47
55187;BME280;55457;52.002;5.464;2023-04-24T11:59:22;100489.41;;;20.23;42.36
55187;BME280;55457;52.002;5.464;2023-04-24T12:01:48;100502.41;;;20.21;42.41
55187;BME280;55457;52.002;5.464;2023-04-24T12:04:15;100494.28;;;20.21;42.38
55187;BME280;55457;52.002;5.464;2023-04-24T12:07:04;100501.59;;;20.21;42.51
55187;BME280;55457;52.002;5.464;2023-04-24T12:10:08;100509.09;;;20.19;42.43
55187;BME280;55457;52.002;5.464;2023-04-24T12:12:34;100512.88;;;20.18;42.44
55187;BME280;55457;52.002;5.464;2023-04-24T12:15:01;100511.25;;;20.17;42.53
55187;BME280;55457;52.002;5.464;2023-04-24T12:17:31;100518.31;;;20.18;42.56
55187;BME280;55457;52.002;5.464;2023-04-24T12:20:03;100515.59;;;20.18;42.41
55187;BME280;55457;52.002;5.464;2023-04-24T12:22:51;100512.88;;;20.18;42.40
55187;BME280;55457;52.002;5.464;2023-04-24T12:25:24;100521.00;;;20.18;42.26
55187;BME280;55457;52.002;5.464;2023-04-24T12:27:55;100521.00;;;20.18;42.44
55187;BME280;55457;52.002;5.464;2023-04-24T12:30:20;100524.53;;;20.18;42.60
55187;BME280;55457;52.002;5.464;2023-04-24T12:32:48;100519.38;;;20.17;42.40
55187;BME280;55457;52.002;5.464;2023-04-24T12:35:19;100528.56;;;20.16;42.47
55187;BME280;55457;52.002;5.464;2023-04-24T12:37:45;100532.31;;;20.15;42.42
55187;BME280;55457;52.002;5.464;2023-04-24T12:40:12;100537.72;;;20.15;42.34
55187;BME280;55457;52.002;5.464;2023-04-24T12:42:45;100543.13;;;20.15;42.28
55187;BME280;55457;52.002;5.464;2023-04-24T12:45:12;100527.97;;;20.14;42.29
55187;BME280;55457;52.002;5.464;2023-04-24T12:47:39;100548.00;;;20.13;42.36
55187;BME280;55457;52.002;5.464;2023-04-24T12:50:08;100548.00;;;20.13;42.33
55187;BME280;55457;52.002;5.464;2023-04-24T12:52:33;100548.00;;;20.13;42.39
55187;BME280;55457;52.002;5.464;2023-04-24T12:55:00;100545.28;;;20.13;42.07
55187;BME280;55457;52.002;5.464;2023-04-24T12:57:28;100543.41;;;20.13;42.52
55187;BME280;55457;52.002;5.464;2023-04-24T12:59:58;100537.72;;;20.15;42.24
55187;BME280;55457;52.002;5.464;2023-04-24T13:02:24;100551.25;;;20.15;42.22
55187;BME280;55457;52.002;5.464;2023-04-24T13:04:51;100555.03;;;20.14;42.28